sensor_id;sensor_type;location;lat;lon;timestamp;P1;durP1;ratioP1;P2;durP2;ratioP2
55756;SDS011;41676;44.610;44.078;2023-03-20T00:02:17;36.28;;;4.63;;
55756;SDS011;41676;44.610;44.078;2023-03-20T00:07:19;32.75;;;4.68;;
55756;SDS011;41676;44.610;44.078;2023-03-20T00:12:22;33.95;;;4.57;;
55756;SDS011;41676;44.610;44.078;2023-03-20T00:17:25;31.85;;;4.40;;
55756;SDS011;41676;44.610;44.078;2023-03-20T00:22:26;26.27;;;4.03;;
55756;SDS011;41676;44.610;44.078;2023-03-20T00:27:28;30.45;;;3.80;;
55756;SDS011;41676;44.610;44.078;2023-03-20T00:32:29;19.33;;;2.95;;
55756;SDS011;41676;44.610;44.078;2023-03-20T00:37:30;33.40;;;3.63;;
55756;SDS011;41676;44.610;44.078;2023-03-20T00:42:31;31.17;;;3.88;;
55756;SDS011;41676;44.610;44.078;2023-03-20T00:47:31;24.92;;;3.92;;
55756;SDS011;41676;44.610;44.078;2023-03-20T00:52:37;27.52;;;3.67;;
55756;SDS011;41676;44.610;44.078;2023-03-20T00:57:39;24.52;;;2.47;;
55756;SDS011;41676;44.610;44.078;2023-03-20T01:02:43;29.15;;;4.65;;
55756;SDS011;41676;44.610;44.078;2023-03-20T01:07:45;32.05;;;3.90;;
55756;SDS011;41676;44.610;44.078;2023-03-20T01:12:46;36.97;;;4.38;;
55756;SDS011;41676;44.610;44.078;2023-03-20T01:17:47;40.33;;;4.63;;
55756;SDS011;41676;44.610;44.078;2023-03-20T01:22:48;24.73;;;3.55;;
55756;SDS011;41676;44.610;44.078;2023-03-20T01:27:50;26.58;;;4.00;;
55756;SDS011;41676;44.610;44.078;2023-03-20T01:32:52;31.20;;;3.30;;
55756;SDS011;41676;44.610;44.078;2023-03-20T01:37:53;27.67;;;4.25;;
55756;SDS011;41676;44.610;44.078;2023-03-20T01:42:55;23.63;;;3.75;;
55756;SDS011;41676;44.610;44.078;2023-03-20T01:47:56;23.63;;;4.20;;
55756;SDS011;41676;44.610;44.078;2023-03-20T01:58:33;26.40;;;4.00;;
55756;SDS011;41676;44.610;44.078;2023-03-20T02:03:36;18.95;;;3.03;;
55756;SDS011;41676;44.610;44.078;2023-03-20T02:08:47;20.30;;;3.90;;
55756;SDS011;41676;44.610;44.078;2023-03-20T02:13:53;19.23;;;3.72;;
55756;SDS011;41676;44.610;44.078;2023-03-20T02:18:56;26.55;;;3.40;;
55756;SDS011;41676;44.610;44.078;2023-03-20T02:39:34;22.50;;;3.50;;
55756;SDS011;41676;44.610;44.078;2023-03-20T02:44:58;52.60;;;11.48;;
55756;SDS011;41676;44.610;44.078;2023-03-20T02:50:18;37.08;;;10.07;;
55756;SDS011;41676;44.610;44.078;2023-03-20T03:00:56;28.42;;;6.38;;
55756;SDS011;41676;44.610;44.078;2023-03-20T03:05:59;23.08;;;4.70;;
55756;SDS011;41676;44.610;44.078;2023-03-20T03:11:06;29.92;;;4.00;;
55756;SDS011;41676;44.610;44.078;2023-03-20T03:16:09;31.05;;;4.25;;
55756;SDS011;41676;44.610;44.078;2023-03-20T03:21:15;36.33;;;4.97;;
55756;SDS011;41676;44.610;44.078;2023-03-20T03:26:25;43.95;;;9.63;;
55756;SDS011;41676;44.610;44.078;2023-03-20T03:31:30;30.05;;;5.93;;
55756;SDS011;41676;44.610;44.078;2023-03-20T03:41:51;29.80;;;4.80;;
55756;SDS011;41676;44.610;44.078;2023-03-20T03:52:08;18.98;;;3.47;;
55756;SDS011;41676;44.610;44.078;2023-03-20T03:57:11;18.38;;;3.08;;
55756;SDS011;41676;44.610;44.078;2023-03-20T04:02:15;16.90;;;3.90;;
55756;SDS011;41676;44.610;44.078;2023-03-20T04:07:18;16.60;;;3.00;;
55756;SDS011;41676;44.610;44.078;2023-03-20T04:12:41;12.93;;;3.08;;
55756;SDS011;41676;44.610;44.078;2023-03-20T04:17:43;15.98;;;3.20;;
55756;SDS011;41676;44.610;44.078;2023-03-20T04:22:44;23.52;;;2.58;;
55756;SDS011;41676;44.610;44.078;2023-03-20T04:27:45;12.00;;;2.40;;
55756;SDS011;41676;44.610;44.078;2023-03-20T04:32:46;45.25;;;3.65;;
55756;SDS011;41676;44.610;44.078;2023-03-20T04:37:47;30.67;;;2.58;;
55756;SDS011;41676;44.610;44.078;2023-03-20T04:42:48;13.55;;;2.30;;
55756;SDS011;41676;44.610;44.078;2023-03-20T04:47:49;16.67;;;2.85;;
55756;SDS011;41676;44.610;44.078;2023-03-20T04:52:50;27.30;;;3.83;;
55756;SDS011;41676;44.610;44.078;2023-03-20T04:57:50;9.55;;;3.97;;
55756;SDS011;41676;44.610;44.078;2023-03-20T05:02:54;14.18;;;5.72;;
55756;SDS011;41676;44.610;44.078;2023-03-20T05:07:55;10.77;;;3.97;;
55756;SDS011;41676;44.610;44.078;2023-03-20T05:12:56;11.88;;;3.35;;
55756;SDS011;41676;44.610;44.078;2023-03-20T05:17:57;9.25;;;2.60;;
55756;SDS011;41676;44.610;44.078;2023-03-20T05:22:58;10.13;;;2.45;;
55756;SDS011;41676;44.610;44.078;2023-03-20T05:27:58;11.68;;;3.25;;
55756;SDS011;41676;44.610;44.078;2023-03-20T05:32:59;12.88;;;2.78;;
55756;SDS011;41676;44.610;44.078;2023-03-20T05:38:00;15.43;;;3.55;;
55756;SDS011;41676;44.610;44.078;2023-03-20T05:43:01;16.23;;;5.25;;
55756;SDS011;41676;44.610;44.078;2023-03-20T05:48:01;15.95;;;3.10;;
55756;SDS011;41676;44.610;44.078;2023-03-20T05:53:02;9.30;;;2.80;;
55756;SDS011;41676;44.610;44.078;2023-03-20T05:58:03;8.18;;;2.15;;
55756;SDS011;41676;44.610;44.078;2023-03-20T06:03:04;10.80;;;2.53;;
55756;SDS011;41676;44.610;44.078;2023-03-20T06:08:08;12.37;;;2.70;;
55756;SDS011;41676;44.610;44.078;2023-03-20T06:13:09;13.43;;;4.00;;
55756;SDS011;41676;44.610;44.078;2023-03-20T06:18:09;15.38;;;2.92;;
55756;SDS011;41676;44.610;44.078;2023-03-20T06:23:10;14.73;;;3.10;;
55756;SDS011;41676;44.610;44.078;2023-03-20T06:28:11;19.65;;;2.97;;
55756;SDS011;41676;44.610;44.078;2023-03-20T06:33:12;10.40;;;2.30;;
55756;SDS011;41676;44.610;44.078;2023-03-20T06:38:13;18.63;;;3.33;;
55756;SDS011;41676;44.610;44.078;2023-03-20T06:43:14;15.95;;;3.25;;
55756;SDS011;41676;44.610;44.078;2023-03-20T06:48:15;19.55;;;3.05;;
55756;SDS011;41676;44.610;44.078;2023-03-20T06:53:21;25.00;;;3.53;;
55756;SDS011;41676;44.610;44.078;2023-03-20T06:58:21;19.05;;;3.10;;
55756;SDS011;41676;44.610;44.078;2023-03-20T07:03:22;24.88;;;3.47;;
55756;SDS011;41676;44.610;44.078;2023-03-20T07:08:23;20.98;;;3.33;;
55756;SDS011;41676;44.610;44.078;2023-03-20T07:13:23;18.85;;;3.80;;
55756;SDS011;41676;44.610;44.078;2023-03-20T07:18:25;16.63;;;3.20;;
55756;SDS011;41676;44.610;44.078;2023-03-20T07:23:26;17.58;;;3.38;;
55756;SDS011;41676;44.610;44.078;2023-03-20T07:28:30;19.85;;;3.75;;
55756;SDS011;41676;44.610;44.078;2023-03-20T07:33:31;16.90;;;3.30;;
55756;SDS011;41676;44.610;44.078;2023-03-20T07:38:32;22.27;;;3.75;;
55756;SDS011;41676;44.610;44.078;2023-03-20T07:43:33;22.25;;;4.03;;
55756;SDS011;41676;44.610;44.078;2023-03-20T07:48:34;23.63;;;3.78;;
55756;SDS011;41676;44.610;44.078;2023-03-20T07:53:35;20.30;;;4.00;;
55756;SDS011;41676;44.610;44.078;2023-03-20T07:58:36;21.60;;;4.40;;
55756;SDS011;41676;44.610;44.078;2023-03-20T08:03:36;24.23;;;3.70;;
55756;SDS011;41676;44.610;44.078;2023-03-20T08:08:38;23.58;;;3.67;;
55756;SDS011;41676;44.610;44.078;2023-03-20T08:13:39;14.35;;;3.75;;
55756;SDS011;41676;44.610;44.078;2023-03-20T08:18:40;17.85;;;3.78;;
55756;SDS011;41676;44.610;44.078;2023-03-20T08:23:41;14.23;;;3.75;;
55756;SDS011;41676;44.610;44.078;2023-03-20T08:28:42;10.98;;;2.85;;
55756;SDS011;41676;44.610;44.078;2023-03-20T08:33:44;47.10;;;22.10;;
55756;SDS011;41676;44.610;44.078;2023-03-20T08:43:48;22.30;;;4.50;;
55756;SDS011;41676;44.610;44.078;2023-03-20T08:48:49;19.55;;;6.18;;
55756;SDS011;41676;44.610;44.078;2023-03-20T08:53:50;29.48;;;7.72;;
55756;SDS011;41676;44.610;44.078;2023-03-20T08:58:50;26.98;;;4.75;;
55756;SDS011;41676;44.610;44.078;2023-03-20T09:03:53;24.92;;;4.05;;
55756;SDS011;41676;44.610;44.078;2023-03-20T09:08:54;19.95;;;5.85;;
55756;SDS011;41676;44.610;44.078;2023-03-20T09:13:56;16.60;;;4.47;;
55756;SDS011;41676;44.610;44.078;2023-03-20T09:18:58;18.88;;;3.80;;
55756;SDS011;41676;44.610;44.078;2023-03-20T09:23:59;14.93;;;3.40;;
55756;SDS011;41676;44.610;44.078;2023-03-20T09:28:59;19.77;;;7.00;;
55756;SDS011;41676;44.610;44.078;2023-03-20T09:34:00;17.60;;;3.75;;
55756;SDS011;41676;44.610;44.078;2023-03-20T09:39:01;14.85;;;3.97;;
55756;SDS011;41676;44.610;44.078;2023-03-20T09:54:34;14.57;;;3.00;;
55756;SDS011;41676;44.610;44.078;2023-03-20T09:59:38;15.38;;;3.40;;
55756;SDS011;41676;44.610;44.078;2023-03-20T10:04:39;12.80;;;2.95;;
55756;SDS011;41676;44.610;44.078;2023-03-20T10:09:42;18.17;;;3.40;;
55756;SDS011;41676;44.610;44.078;2023-03-20T10:25:21;12.65;;;3.63;;
55756;SDS011;41676;44.610;44.078;2023-03-20T10:35:49;12.45;;;3.08;;
55756;SDS011;41676;44.610;44.078;2023-03-20T10:40:59;11.10;;;2.78;;
55756;SDS011;41676;44.610;44.078;2023-03-20T10:46:20;9.70;;;2.97;;
55756;SDS011;41676;44.610;44.078;2023-03-20T10:51:23;11.18;;;2.72;;
55756;SDS011;41676;44.610;44.078;2023-03-20T10:56:46;14.23;;;2.28;;
55756;SDS011;41676;44.610;44.078;2023-03-20T11:01:50;9.13;;;2.38;;
55756;SDS011;41676;44.610;44.078;2023-03-20T11:07:02;10.95;;;2.53;;
55756;SDS011;41676;44.610;44.078;2023-03-20T11:12:15;13.83;;;2.47;;
55756;SDS011;41676;44.610;44.078;2023-03-20T11:17:18;10.52;;;2.65;;
55756;SDS011;41676;44.610;44.078;2023-03-20T11:27:32;7.63;;;2.13;;
55756;SDS011;41676;44.610;44.078;2023-03-20T11:32:34;11.02;;;2.70;;
55756;SDS011;41676;44.610;44.078;2023-03-20T11:37:42;7.82;;;2.80;;
55756;SDS011;41676;44.610;44.078;2023-03-20T11:43:18;9.95;;;2.97;;
55756;SDS011;41676;44.610;44.078;2023-03-20T11:53:22;9.85;;;2.85;;
55756;SDS011;41676;44.610;44.078;2023-03-20T11:58:27;7.13;;;2.75;;
55756;SDS011;41676;44.610;44.078;2023-03-20T12:08:45;12.65;;;3.88;;
55756;SDS011;41676;44.610;44.078;2023-03-20T12:13:50;25.60;;;17.10;;
55756;SDS011;41676;44.610;44.078;2023-03-20T12:19:03;15.15;;;4.82;;
55756;SDS011;41676;44.610;44.078;2023-03-20T12:29:26;12.85;;;3.35;;
55756;SDS011;41676;44.610;44.078;2023-03-20T12:39:38;9.77;;;2.53;;
55756;SDS011;41676;44.610;44.078;2023-03-20T12:55:24;8.68;;;2.33;;
55756;SDS011;41676;44.610;44.078;2023-03-20T13:00:47;35.85;;;21.65;;
55756;SDS011;41676;44.610;44.078;2023-03-20T13:06:14;16.27;;;6.50;;
55756;SDS011;41676;44.610;44.078;2023-03-20T13:11:46;14.85;;;6.70;;
55756;SDS011;41676;44.610;44.078;2023-03-20T13:22:14;12.40;;;3.00;;
55756;SDS011;41676;44.610;44.078;2023-03-20T13:32:32;12.30;;;2.65;;
55756;SDS011;41676;44.610;44.078;2023-03-20T13:38:15;9.77;;;2.03;;
55756;SDS011;41676;44.610;44.078;2023-03-20T13:43:27;7.93;;;2.30;;
55756;SDS011;41676;44.610;44.078;2023-03-20T13:48:35;18.38;;;10.60;;
55756;SDS011;41676;44.610;44.078;2023-03-20T14:03:58;13.75;;;3.05;;
55756;SDS011;41676;44.610;44.078;2023-03-20T14:09:00;11.18;;;2.35;;
55756;SDS011;41676;44.610;44.078;2023-03-20T14:14:09;13.60;;;3.50;;
55756;SDS011;41676;44.610;44.078;2023-03-20T14:19:19;20.58;;;3.20;;
55756;SDS011;41676;44.610;44.078;2023-03-20T14:24:25;27.58;;;2.85;;
55756;SDS011;41676;44.610;44.078;2023-03-20T14:34:30;32.05;;;2.92;;
55756;SDS011;41676;44.610;44.078;2023-03-20T14:55:26;23.30;;;3.33;;
55756;SDS011;41676;44.610;44.078;2023-03-20T15:00:32;39.60;;;4.20;;
55756;SDS011;41676;44.610;44.078;2023-03-20T15:05:36;35.58;;;4.20;;
55756;SDS011;41676;44.610;44.078;2023-03-20T15:10:45;53.10;;;5.60;;
55756;SDS011;41676;44.610;44.078;2023-03-20T15:15:59;64.70;;;7.45;;
55756;SDS011;41676;44.610;44.078;2023-03-20T15:21:13;62.70;;;6.80;;
55756;SDS011;41676;44.610;44.078;2023-03-20T15:26:16;74.63;;;7.95;;
55756;SDS011;41676;44.610;44.078;2023-03-20T15:31:26;70.20;;;8.37;;
55756;SDS011;41676;44.610;44.078;2023-03-20T15:36:30;62.38;;;7.78;;
55756;SDS011;41676;44.610;44.078;2023-03-20T15:41:36;90.70;;;9.20;;
55756;SDS011;41676;44.610;44.078;2023-03-20T15:46:38;95.50;;;8.98;;
55756;SDS011;41676;44.610;44.078;2023-03-20T15:51:38;99.30;;;10.43;;
55756;SDS011;41676;44.610;44.078;2023-03-20T15:56:39;79.22;;;8.85;;
55756;SDS011;41676;44.610;44.078;2023-03-20T16:01:46;89.70;;;9.57;;
55756;SDS011;41676;44.610;44.078;2023-03-20T16:06:55;80.88;;;9.38;;
55756;SDS011;41676;44.610;44.078;2023-03-20T16:11:58;86.43;;;9.07;;
55756;SDS011;41676;44.610;44.078;2023-03-20T16:17:01;83.78;;;9.75;;
55756;SDS011;41676;44.610;44.078;2023-03-20T16:22:10;89.75;;;9.80;;
55756;SDS011;41676;44.610;44.078;2023-03-20T16:27:13;82.78;;;8.88;;
55756;SDS011;41676;44.610;44.078;2023-03-20T16:32:33;85.05;;;8.45;;
55756;SDS011;41676;44.610;44.078;2023-03-20T16:37:40;71.78;;;9.10;;
55756;SDS011;41676;44.610;44.078;2023-03-20T16:42:46;94.70;;;9.63;;
55756;SDS011;41676;44.610;44.078;2023-03-20T16:47:47;86.47;;;7.88;;
55756;SDS011;41676;44.610;44.078;2023-03-20T16:52:49;116.07;;;11.27;;
55756;SDS011;41676;44.610;44.078;2023-03-20T16:57:56;105.03;;;11.63;;
55756;SDS011;41676;44.610;44.078;2023-03-20T17:03:47;101.15;;;11.02;;
55756;SDS011;41676;44.610;44.078;2023-03-20T17:08:45;134.48;;;14.00;;
55756;SDS011;41676;44.610;44.078;2023-03-20T17:13:48;136.48;;;14.23;;
55756;SDS011;41676;44.610;44.078;2023-03-20T17:19:03;121.00;;;13.18;;
55756;SDS011;41676;44.610;44.078;2023-03-20T17:24:04;141.02;;;14.20;;
55756;SDS011;41676;44.610;44.078;2023-03-20T17:29:05;150.48;;;14.60;;
55756;SDS011;41676;44.610;44.078;2023-03-20T17:34:08;133.25;;;14.65;;
55756;SDS011;41676;44.610;44.078;2023-03-20T17:39:16;158.25;;;14.68;;
55756;SDS011;41676;44.610;44.078;2023-03-20T17:44:18;164.00;;;15.05;;
55756;SDS011;41676;44.610;44.078;2023-03-20T17:49:19;146.70;;;14.35;;
55756;SDS011;41676;44.610;44.078;2023-03-20T17:54:26;153.48;;;15.10;;
55756;SDS011;41676;44.610;44.078;2023-03-20T17:59:26;147.80;;;15.73;;
55756;SDS011;41676;44.610;44.078;2023-03-20T18:04:30;136.43;;;16.33;;
55756;SDS011;41676;44.610;44.078;2023-03-20T18:09:31;184.43;;;33.90;;
55756;SDS011;41676;44.610;44.078;2023-03-20T18:14:32;181.77;;;28.70;;
55756;SDS011;41676;44.610;44.078;2023-03-20T18:19:33;151.10;;;20.63;;
55756;SDS011;41676;44.610;44.078;2023-03-20T18:24:34;134.38;;;18.10;;
55756;SDS011;41676;44.610;44.078;2023-03-20T18:29:35;167.18;;;18.17;;
55756;SDS011;41676;44.610;44.078;2023-03-20T18:34:36;165.60;;;18.67;;
55756;SDS011;41676;44.610;44.078;2023-03-20T18:39:37;150.02;;;15.50;;
55756;SDS011;41676;44.610;44.078;2023-03-20T19:17:43;122.53;;;17.33;;
55756;SDS011;41676;44.610;44.078;2023-03-20T19:22:43;112.18;;;16.08;;
55756;SDS011;41676;44.610;44.078;2023-03-20T19:27:44;119.07;;;14.88;;
55756;SDS011;41676;44.610;44.078;2023-03-20T19:32:45;136.18;;;15.50;;
55756;SDS011;41676;44.610;44.078;2023-03-20T19:37:46;125.20;;;14.20;;
55756;SDS011;41676;44.610;44.078;2023-03-20T19:42:47;127.30;;;15.30;;
55756;SDS011;41676;44.610;44.078;2023-03-20T19:47:47;121.40;;;14.65;;
55756;SDS011;41676;44.610;44.078;2023-03-20T19:52:48;132.18;;;14.98;;
55756;SDS011;41676;44.610;44.078;2023-03-20T19:57:49;132.25;;;14.82;;
55756;SDS011;41676;44.610;44.078;2023-03-20T20:02:51;131.55;;;13.85;;
55756;SDS011;41676;44.610;44.078;2023-03-20T20:07:52;152.15;;;16.75;;
55756;SDS011;41676;44.610;44.078;2023-03-20T20:12:53;128.73;;;15.18;;
55756;SDS011;41676;44.610;44.078;2023-03-20T20:17:54;140.43;;;21.35;;
55756;SDS011;41676;44.610;44.078;2023-03-20T20:22:56;141.45;;;19.45;;
55756;SDS011;41676;44.610;44.078;2023-03-20T20:27:57;146.65;;;20.83;;
55756;SDS011;41676;44.610;44.078;2023-03-20T20:32:58;145.40;;;22.30;;
55756;SDS011;41676;44.610;44.078;2023-03-20T20:37:59;148.32;;;19.40;;
55756;SDS011;41676;44.610;44.078;2023-03-20T20:43:00;142.55;;;18.88;;
55756;SDS011;41676;44.610;44.078;2023-03-20T20:48:01;125.13;;;18.80;;
55756;SDS011;41676;44.610;44.078;2023-03-20T20:53:06;149.27;;;20.95;;
55756;SDS011;41676;44.610;44.078;2023-03-20T20:58:07;141.18;;;18.65;;
55756;SDS011;41676;44.610;44.078;2023-03-20T21:03:08;138.30;;;16.63;;
55756;SDS011;41676;44.610;44.078;2023-03-20T21:08:08;137.85;;;16.40;;
55756;SDS011;41676;44.610;44.078;2023-03-20T21:13:11;138.80;;;15.05;;
55756;SDS011;41676;44.610;44.078;2023-03-20T21:18:12;137.95;;;16.88;;
55756;SDS011;41676;44.610;44.078;2023-03-20T21:23:13;128.85;;;15.95;;
55756;SDS011;41676;44.610;44.078;2023-03-20T21:28:14;134.57;;;16.33;;
55756;SDS011;41676;44.610;44.078;2023-03-20T21:33:15;143.40;;;18.25;;
55756;SDS011;41676;44.610;44.078;2023-03-20T21:38:16;161.23;;;17.35;;
55756;SDS011;41676;44.610;44.078;2023-03-20T21:43:20;147.93;;;17.85;;
55756;SDS011;41676;44.610;44.078;2023-03-20T21:48:21;160.38;;;17.67;;
55756;SDS011;41676;44.610;44.078;2023-03-20T21:53:21;162.00;;;17.15;;
55756;SDS011;41676;44.610;44.078;2023-03-20T21:58:22;141.38;;;16.45;;
55756;SDS011;41676;44.610;44.078;2023-03-20T22:03:23;155.25;;;17.92;;
55756;SDS011;41676;44.610;44.078;2023-03-20T22:08:24;132.25;;;14.88;;
55756;SDS011;41676;44.610;44.078;2023-03-20T22:13:24;149.23;;;17.98;;
55756;SDS011;41676;44.610;44.078;2023-03-20T22:18:25;153.48;;;17.60;;
55756;SDS011;41676;44.610;44.078;2023-03-20T22:23:27;146.95;;;19.02;;
55756;SDS011;41676;44.610;44.078;2023-03-20T22:28:29;152.98;;;17.10;;
55756;SDS011;41676;44.610;44.078;2023-03-20T22:33:30;135.88;;;15.98;;
55756;SDS011;41676;44.610;44.078;2023-03-20T22:38:31;114.00;;;14.45;;
55756;SDS011;41676;44.610;44.078;2023-03-20T22:43:32;145.80;;;17.50;;
55756;SDS011;41676;44.610;44.078;2023-03-20T22:48:33;146.88;;;16.83;;
55756;SDS011;41676;44.610;44.078;2023-03-20T22:53:34;150.95;;;22.05;;
55756;SDS011;41676;44.610;44.078;2023-03-20T22:58:35;229.57;;;80.97;;
55756;SDS011;41676;44.610;44.078;2023-03-20T23:03:37;137.00;;;28.95;;
55756;SDS011;41676;44.610;44.078;2023-03-20T23:08:38;141.10;;;17.35;;
55756;SDS011;41676;44.610;44.078;2023-03-20T23:13:39;148.63;;;16.48;;
55756;SDS011;41676;44.610;44.078;2023-03-20T23:18:40;153.98;;;17.80;;
55756;SDS011;41676;44.610;44.078;2023-03-20T23:23:41;148.32;;;21.25;;
55756;SDS011;41676;44.610;44.078;2023-03-20T23:28:42;136.57;;;17.50;;
55756;SDS011;41676;44.610;44.078;2023-03-20T23:33:50;143.80;;;16.07;;
55756;SDS011;41676;44.610;44.078;2023-03-20T23:38:53;97.93;;;12.85;;
55756;SDS011;41676;44.610;44.078;2023-03-20T23:43:54;153.07;;;17.95;;
55756;SDS011;41676;44.610;44.078;2023-03-20T23:48:55;160.25;;;17.15;;
55756;SDS011;41676;44.610;44.078;2023-03-20T23:53:55;140.88;;;16.42;;
55756;SDS011;41676;44.610;44.078;2023-03-20T23:58:56;123.28;;;16.27;;
